Time;durP1;ratioP1;P1;durP2;ratioP2;P2;SDS_P1;SDS_P2;PMS_P1;PMS_P2;Temp;Humidity;BMP_temperature;BMP_pressure;BME280_temperature;BME280_humidity;BME280_pressure;Samples;Min_cycle;Max_cycle;Signal;HPM_P1;HPM_P2
2021/08/30 00:00:16;;;;;;;3.67;2.92;;;15.90;99.90;;;;;;5077423;28;20032;-63
2021/08/30 00:02:42;;;;;;;4.47;2.90;;;15.90;99.90;;;;;;5077003;28;20383;-64
2021/08/30 00:05:42;;;;;;;3.40;3.10;;;15.90;99.90;;;;;;5077204;28;20036;-66
2021/08/30 00:08:08;;;;;;;3.17;2.85;;;15.90;99.90;;;;;;5073697;28;20139;-62
2021/08/30 00:10:33;;;;;;;3.13;2.83;;;15.90;99.90;;;;;;5077811;28;20061;-64
2021/08/30 00:12:59;;;;;;;2.65;2.45;;;15.80;99.90;;;;;;5084811;28;20119;-62
2021/08/30 00:15:25;;;;;;;4.50;2.90;;;15.80;99.90;;;;;;5092321;28;20028;-63
2021/08/30 00:17:51;;;;;;;2.80;2.55;;;15.80;99.90;;;;;;5092699;28;20478;-66
2021/08/30 00:20:19;;;;;;;3.95;3.08;;;15.80;99.90;;;;;;5093729;28;20032;-65
2021/08/30 00:22:46;;;;;;;4.50;3.10;;;15.80;99.90;;;;;;5094453;28;20383;-64
2021/08/30 00:25:12;;;;;;;3.33;2.85;;;15.90;99.90;;;;;;5091373;28;20028;-65
2021/08/30 00:27:38;;;;;;;3.35;2.80;;;15.80;99.90;;;;;;5095795;28;20044;-64
2021/08/30 00:30:05;;;;;;;3.80;2.97;;;15.90;99.90;;;;;;5090620;28;20478;-62
2021/08/30 00:32:31;;;;;;;3.30;2.97;;;15.90;99.90;;;;;;5093045;28;20035;-62
2021/08/30 00:34:57;;;;;;;3.60;2.88;;;15.90;99.90;;;;;;5093186;28;20111;-61
2021/08/30 00:37:22;;;;;;;4.53;3.95;;;15.90;99.90;;;;;;5091586;28;20040;-62
2021/08/30 00:39:49;;;;;;;4.15;3.75;;;15.90;99.90;;;;;;5091262;28;20100;-61
2021/08/30 00:42:15;;;;;;;3.38;2.90;;;15.90;99.90;;;;;;5096987;28;20036;-61
2021/08/30 00:44:41;;;;;;;2.80;2.40;;;15.90;99.90;;;;;;5096951;28;20143;-61
2021/08/30 00:47:07;;;;;;;4.00;2.78;;;15.80;99.90;;;;;;5094475;28;20028;-62
2021/08/30 00:49:32;;;;;;;3.70;3.00;;;15.80;99.90;;;;;;5094190;28;20032;-60
2021/08/30 00:51:58;;;;;;;3.13;2.83;;;15.70;99.90;;;;;;5095356;28;20535;-62
2021/08/30 00:54:26;;;;;;;3.22;2.90;;;15.60;99.90;;;;;;5095864;28;20111;-61
2021/08/30 00:56:52;;;;;;;3.25;2.67;;;15.50;99.90;;;;;;5092876;28;20028;-60
2021/08/30 00:59:18;;;;;;;3.30;2.78;;;15.40;99.90;;;;;;5096564;28;20024;-59
2021/08/30 01:01:43;;;;;;;2.97;2.60;;;15.50;99.90;;;;;;5096563;28;20052;-60
2021/08/30 01:04:11;;;;;;;3.97;2.45;;;15.40;99.90;;;;;;5095477;28;20393;-58
2021/08/30 01:06:48;;;;;;;3.38;2.42;;;15.40;99.90;;;;;;5095771;28;20036;-61
2021/08/30 01:09:28;;;;;;;2.88;2.40;;;15.30;99.90;;;;;;5093694;28;20028;-61
2021/08/30 01:12:19;;;;;;;3.65;2.40;;;15.20;99.90;;;;;;5087625;28;20044;-62
2021/08/30 01:14:52;;;;;;;3.78;2.72;;;15.30;99.90;;;;;;5095889;28;20056;-63
2021/08/30 01:17:19;;;;;;;3.30;2.38;;;15.30;99.90;;;;;;5096181;28;20082;-62
2021/08/30 01:19:53;;;;;;;2.72;2.30;;;15.30;99.90;;;;;;5090258;28;20501;-63
2021/08/30 01:22:20;;;;;;;3.33;2.40;;;15.30;99.90;;;;;;5091382;28;20479;-64
2021/08/30 01:24:47;;;;;;;3.38;2.38;;;15.20;99.90;;;;;;5089985;28;20383;-63
2021/08/30 01:27:13;;;;;;;2.75;2.38;;;15.10;99.90;;;;;;5090534;28;20028;-62
2021/08/30 01:29:57;;;;;;;2.78;2.28;;;15.20;99.90;;;;;;5091063;28;20509;-62
2021/08/30 01:32:37;;;;;;;2.50;2.25;;;15.10;99.90;;;;;;5091366;28;20407;-62
2021/08/30 01:35:15;;;;;;;3.67;2.65;;;15.00;99.90;;;;;;5098198;28;20040;-62
2021/08/30 01:37:44;;;;;;;3.60;2.45;;;15.00;99.90;;;;;;5101430;28;20028;-62
2021/08/30 01:40:12;;;;;;;2.63;2.35;;;15.00;99.90;;;;;;5092342;28;20103;-64
2021/08/30 01:42:43;;;;;;;2.42;2.20;;;15.00;99.90;;;;;;5095046;28;20221;-65
2021/08/30 01:45:15;;;;;;;2.88;2.50;;;14.90;99.90;;;;;;5092193;28;20069;-65
2021/08/30 01:47:42;;;;;;;2.88;2.38;;;14.80;99.90;;;;;;5094451;28;20027;-64
2021/08/30 01:50:15;;;;;;;2.97;2.60;;;14.90;99.90;;;;;;5092464;28;20032;-64
2021/08/30 01:52:42;;;;;;;4.78;3.55;;;14.90;99.90;;;;;;5094117;28;20048;-65
2021/08/30 01:55:16;;;;;;;4.07;2.72;;;15.00;99.90;;;;;;5094311;28;20024;-65
2021/08/30 02:03:31;;;;;;;5.90;3.35;;;14.90;99.90;;;;;;5091788;28;20055;-64
2021/08/30 02:06:05;;;;;;;4.03;2.90;;;14.90;99.90;;;;;;5093645;28;20515;-64
2021/08/30 02:08:33;;;;;;;3.85;2.63;;;14.90;99.90;;;;;;5092726;28;20028;-65
2021/08/30 02:11:04;;;;;;;4.95;2.97;;;14.90;99.90;;;;;;5093622;28;20051;-66
2021/08/30 02:13:30;;;;;;;3.72;2.40;;;14.90;99.90;;;;;;5091522;28;20036;-64
2021/08/30 02:15:57;;;;;;;3.22;2.63;;;14.90;99.90;;;;;;5093930;28;20376;-64
2021/08/30 02:18:41;;;;;;;3.30;2.30;;;14.90;99.90;;;;;;5094242;28;20031;-63
2021/08/30 02:21:14;;;;;;;2.90;2.20;;;15.00;99.90;;;;;;5091909;28;20032;-63
2021/08/30 02:23:53;;;;;;;2.77;2.43;;;14.90;99.90;;;;;;5093543;28;20467;-63
2021/08/30 02:26:24;;;;;;;3.00;2.50;;;15.00;99.90;;;;;;5093914;28;20032;-62
2021/08/30 02:28:51;;;;;;;3.55;2.42;;;15.00;99.90;;;;;;5077517;28;20123;-63
2021/08/30 02:31:18;;;;;;;2.92;2.42;;;15.00;99.90;;;;;;5094552;28;20360;-61
2021/08/30 02:33:45;;;;;;;4.18;2.60;;;15.10;99.90;;;;;;5094163;28;20388;-62
2021/08/30 02:36:13;;;;;;;3.45;2.55;;;15.10;99.90;;;;;;5094848;28;20028;-64
2021/08/30 02:38:41;;;;;;;2.60;2.38;;;15.10;99.90;;;;;;5095191;28;20024;-62
2021/08/30 02:41:08;;;;;;;2.58;2.38;;;15.10;99.90;;;;;;5094574;28;20028;-62
2021/08/30 02:43:34;;;;;;;4.32;2.30;;;15.10;99.90;;;;;;5094608;28;20498;-62
2021/08/30 02:46:01;;;;;;;2.80;2.50;;;14.90;99.90;;;;;;5075837;28;20122;-62
2021/08/30 02:48:29;;;;;;;2.92;2.53;;;15.00;99.90;;;;;;5075656;28;20032;-63
2021/08/30 02:50:56;;;;;;;2.80;2.35;;;15.00;99.90;;;;;;5093692;28;20028;-63
2021/08/30 02:53:23;;;;;;;4.05;2.45;;;15.10;99.90;;;;;;5075189;28;20453;-63
2021/08/30 02:55:50;;;;;;;2.90;2.60;;;15.10;99.90;;;;;;5093810;28;20032;-60
2021/08/30 02:58:16;;;;;;;3.25;2.80;;;14.90;99.90;;;;;;5094246;28;20032;-60
2021/08/30 03:00:41;;;;;;;4.30;2.83;;;14.90;99.90;;;;;;5075429;28;20028;-60
2021/08/30 03:03:07;;;;;;;4.00;2.80;;;14.90;99.90;;;;;;5093867;28;20086;-59
2021/08/30 03:05:34;;;;;;;3.20;2.50;;;15.00;99.90;;;;;;5094222;28;20051;-61
2021/08/30 03:08:00;;;;;;;3.78;2.78;;;15.00;99.90;;;;;;5094160;28;20039;-61
2021/08/30 03:10:26;;;;;;;3.25;2.85;;;15.00;99.90;;;;;;5093914;28;20043;-60
2021/08/30 03:12:54;;;;;;;3.25;2.70;;;15.00;99.90;;;;;;5096034;28;20078;-60
2021/08/30 03:15:23;;;;;;;2.38;2.17;;;15.00;99.90;;;;;;5098737;28;20103;-60
2021/08/30 03:17:50;;;;;;;2.72;2.40;;;15.10;99.90;;;;;;5097248;28;20062;-60
2021/08/30 03:20:20;;;;;;;2.50;2.30;;;15.00;99.90;;;;;;5083440;28;20025;-59
2021/08/30 03:22:47;;;;;;;3.65;2.33;;;14.90;99.90;;;;;;5055232;28;20033;-59
2021/08/30 03:25:15;;;;;;;2.65;2.30;;;14.90;99.90;;;;;;5055628;28;20462;-58
2021/08/30 03:27:45;;;;;;;3.92;2.78;;;14.90;99.90;;;;;;5073623;28;20020;-60
2021/08/30 03:30:14;;;;;;;4.18;2.65;;;14.90;99.90;;;;;;5073508;28;20108;-59
2021/08/30 03:32:42;;;;;;;4.20;2.60;;;14.90;99.90;;;;;;5072203;28;20047;-61
2021/08/30 03:35:11;;;;;;;3.67;2.70;;;14.90;99.90;;;;;;5072730;28;20037;-59
2021/08/30 03:37:38;;;;;;;3.38;3.00;;;14.80;99.90;;;;;;5073827;28;20032;-59
2021/08/30 03:40:05;;;;;;;5.50;3.13;;;14.80;99.90;;;;;;5077503;28;20028;-60
2021/08/30 03:42:31;;;;;;;3.83;3.20;;;14.90;99.90;;;;;;5092329;28;20059;-59
2021/08/30 03:44:57;;;;;;;4.22;3.35;;;15.00;99.90;;;;;;5094793;28;20051;-60
2021/08/30 03:47:23;;;;;;;4.28;3.20;;;15.00;99.90;;;;;;5093627;28;20036;-60
2021/08/30 03:49:50;;;;;;;5.53;3.80;;;15.00;99.90;;;;;;5094104;28;20090;-61
2021/08/30 03:52:17;;;;;;;5.55;4.75;;;15.10;99.90;;;;;;5092948;28;20414;-58
2021/08/30 03:54:42;;;;;;;4.30;3.88;;;15.20;99.90;;;;;;5093748;28;20750;-57
2021/08/30 03:57:13;;;;;;;5.25;3.80;;;15.20;99.90;;;;;;5093501;28;20035;-59
2021/08/30 03:59:43;;;;;;;5.35;3.90;;;15.20;99.90;;;;;;5094671;28;20032;-59
2021/08/30 04:02:11;;;;;;;5.22;3.80;;;15.20;99.90;;;;;;5093268;28;20027;-59
2021/08/30 04:04:38;;;;;;;6.50;4.15;;;15.30;99.90;;;;;;5093058;28;20052;-60
2021/08/30 04:07:05;;;;;;;4.93;4.30;;;15.30;99.90;;;;;;5093341;28;20380;-60
2021/08/30 04:09:31;;;;;;;4.95;4.45;;;15.20;99.90;;;;;;5093296;28;20036;-60
2021/08/30 04:11:57;;;;;;;7.03;5.30;;;15.20;99.90;;;;;;5092879;28;20490;-60
2021/08/30 04:14:23;;;;;;;8.00;5.30;;;15.20;99.90;;;;;;5093477;28;20072;-61
2021/08/30 04:16:49;;;;;;;8.05;5.50;;;15.30;99.90;;;;;;5092563;28;20056;-60
2021/08/30 04:19:16;;;;;;;7.20;5.78;;;15.20;99.90;;;;;;5090757;28;20044;-62
2021/08/30 04:21:42;;;;;;;7.03;4.65;;;15.20;99.90;;;;;;5072186;28;20036;-60
2021/08/30 04:24:08;;;;;;;7.45;5.07;;;15.20;99.90;;;;;;5072853;28;20043;-61
2021/08/30 04:26:35;;;;;;;8.40;5.82;;;15.20;99.90;;;;;;5073138;28;20040;-58
2021/08/30 04:29:00;;;;;;;8.25;6.05;;;15.20;99.90;;;;;;5072851;28;20111;-57
2021/08/30 04:31:26;;;;;;;8.35;5.80;;;15.20;99.90;;;;;;5072150;28;20063;-58
2021/08/30 04:33:51;;;;;;;9.10;5.82;;;15.20;99.90;;;;;;5072444;28;20033;-60
2021/08/30 04:36:17;;;;;;;9.68;6.38;;;15.20;99.90;;;;;;5072911;28;20048;-57
2021/08/30 04:38:43;;;;;;;8.65;6.07;;;15.20;99.90;;;;;;5073101;28;20058;-60
2021/08/30 04:41:09;;;;;;;10.73;6.35;;;15.20;99.90;;;;;;5085584;28;20035;-60
2021/08/30 04:43:35;;;;;;;8.82;6.32;;;15.20;99.90;;;;;;5093245;28;20040;-56
2021/08/30 04:46:00;;;;;;;8.93;6.30;;;15.20;99.90;;;;;;5060093;28;20487;-57
2021/08/30 04:48:26;;;;;;;8.52;5.63;;;15.20;99.90;;;;;;5078244;28;20092;-59
2021/08/30 04:50:51;;;;;;;8.57;6.53;;;15.20;99.90;;;;;;5096647;28;20032;-59
2021/08/30 04:53:17;;;;;;;9.48;6.70;;;15.20;99.90;;;;;;5096607;28;20043;-61
2021/08/30 04:55:42;;;;;;;8.48;6.50;;;15.20;99.90;;;;;;5079239;28;20032;-60
2021/08/30 04:58:11;;;;;;;9.27;7.30;;;15.30;99.90;;;;;;5080141;28;20086;-61
2021/08/30 05:00:37;;;;;;;9.00;7.28;;;15.20;99.90;;;;;;5100133;28;20034;-60
2021/08/30 05:03:03;;;;;;;8.05;6.80;;;15.20;99.90;;;;;;5097730;28;20558;-59
2021/08/30 05:05:28;;;;;;;8.57;6.63;;;15.30;99.90;;;;;;5078565;28;20379;-61
2021/08/30 05:07:54;;;;;;;9.32;7.80;;;15.20;99.90;;;;;;5096467;28;20070;-59
2021/08/30 05:10:19;;;;;;;9.15;8.20;;;15.30;99.90;;;;;;5096824;28;20032;-61
2021/08/30 05:12:45;;;;;;;8.40;7.40;;;15.30;99.90;;;;;;5096750;28;20036;-60
2021/08/30 05:15:11;;;;;;;8.73;7.60;;;15.30;99.90;;;;;;5096281;28;20396;-59
2021/08/30 05:17:36;;;;;;;10.32;8.60;;;15.30;99.90;;;;;;5078069;28;20032;-60
2021/08/30 05:20:04;;;;;;;9.05;8.15;;;15.30;99.90;;;;;;5088380;28;20384;-64
2021/08/30 05:22:30;;;;;;;9.90;8.48;;;15.40;99.90;;;;;;5059328;28;20024;-59
2021/08/30 05:24:56;;;;;;;11.10;8.75;;;15.50;99.90;;;;;;5076808;28;20035;-60
2021/08/30 05:27:21;;;;;;;10.52;8.90;;;15.50;99.90;;;;;;5076360;28;20379;-59
2021/08/30 05:29:47;;;;;;;10.82;9.15;;;15.40;99.90;;;;;;5075746;28;20043;-59
2021/08/30 05:32:12;;;;;;;9.23;8.10;;;15.40;99.90;;;;;;5056619;28;20059;-62
2021/08/30 05:34:38;;;;;;;10.57;8.70;;;15.50;99.90;;;;;;5058230;28;20093;-59
2021/08/30 05:37:04;;;;;;;9.65;8.65;;;15.50;99.90;;;;;;5057855;28;20020;-59
2021/08/30 05:39:29;;;;;;;11.23;9.40;;;15.50;99.90;;;;;;5057545;28;20037;-60
2021/08/30 05:41:55;;;;;;;12.02;9.90;;;15.60;99.90;;;;;;5093656;28;20032;-61
2021/08/30 05:44:20;;;;;;;11.18;10.05;;;15.60;99.90;;;;;;5077286;28;20060;-57
2021/08/30 05:46:46;;;;;;;10.75;9.27;;;15.50;99.90;;;;;;5095580;28;20040;-60
2021/08/30 05:49:12;;;;;;;10.63;9.43;;;15.60;99.90;;;;;;5096801;28;20043;-60
2021/08/30 05:51:40;;;;;;;10.77;9.55;;;15.60;99.90;;;;;;5095356;28;20062;-61
2021/08/30 05:54:06;;;;;;;13.52;11.40;;;15.60;99.90;;;;;;5095794;28;20040;-59
2021/08/30 05:56:31;;;;;;;13.05;10.23;;;15.70;99.90;;;;;;5095403;28;20032;-59
2021/08/30 05:58:57;;;;;;;11.50;10.30;;;15.70;99.90;;;;;;5077431;28;20032;-60
2021/08/30 06:01:22;;;;;;;13.38;11.45;;;15.70;99.90;;;;;;5078307;28;20042;-60
2021/08/30 06:03:48;;;;;;;12.20;10.55;;;15.60;99.90;;;;;;5095018;28;20633;-60
2021/08/30 06:06:13;;;;;;;13.70;11.52;;;15.60;99.90;;;;;;5095637;28;20119;-59
2021/08/30 06:08:39;;;;;;;14.45;10.48;;;15.60;99.90;;;;;;5095626;28;20032;-60
2021/08/30 06:11:04;;;;;;;14.45;11.13;;;15.60;99.90;;;;;;5095829;28;20047;-58
2021/08/30 06:13:30;;;;;;;15.70;11.98;;;15.60;99.90;;;;;;5095198;28;20403;-60
2021/08/30 06:15:56;;;;;;;14.45;11.32;;;15.60;99.90;;;;;;5095510;28;20058;-60
2021/08/30 06:18:21;;;;;;;14.18;11.80;;;15.70;99.90;;;;;;5095594;28;20032;-62
2021/08/30 06:20:47;;;;;;;14.13;11.35;;;15.80;99.90;;;;;;5080389;28;20032;-60
2021/08/30 06:23:13;;;;;;;13.52;11.35;;;15.80;99.90;;;;;;5074302;28;20742;-60
2021/08/30 06:25:38;;;;;;;12.57;10.63;;;15.80;99.90;;;;;;5074707;28;20063;-58
2021/08/30 06:28:04;;;;;;;13.23;11.43;;;15.80;99.90;;;;;;5074466;28;20036;-59
2021/08/30 06:30:30;;;;;;;11.40;10.15;;;15.80;99.90;;;;;;5076863;28;20032;-60
2021/08/30 06:32:56;;;;;;;14.32;10.80;;;15.90;99.90;;;;;;5091506;28;20036;-60
2021/08/30 06:35:22;;;;;;;16.73;13.68;;;15.90;99.90;;;;;;5077200;28;20054;-60
2021/08/30 06:37:48;;;;;;;13.75;10.75;;;15.90;99.90;;;;;;5095105;28;20032;-60
2021/08/30 06:40:13;;;;;;;12.25;10.65;;;15.90;99.90;;;;;;5095311;28;20095;-60
2021/08/30 06:42:39;;;;;;;12.90;10.48;;;15.90;99.90;;;;;;5093860;28;20040;-60
2021/08/30 06:45:06;;;;;;;13.15;10.93;;;15.90;99.90;;;;;;5093910;28;20118;-59
2021/08/30 06:47:32;;;;;;;12.07;10.68;;;16.00;99.90;;;;;;5093018;28;20668;-60
2021/08/30 06:49:57;;;;;;;15.00;11.52;;;16.00;99.90;;;;;;5091150;28;20036;-59
2021/08/30 06:52:23;;;;;;;16.70;12.57;;;16.10;99.90;;;;;;5093683;28;20136;-59
2021/08/30 06:54:50;;;;;;;14.93;11.10;;;16.20;99.90;;;;;;5094474;28;20032;-61
2021/08/30 06:57:15;;;;;;;15.27;10.73;;;16.30;99.90;;;;;;5095091;28;20063;-61
2021/08/30 06:59:41;;;;;;;11.52;9.98;;;16.50;99.90;;;;;;5093948;28;20046;-58
2021/08/30 07:02:07;;;;;;;10.10;9.05;;;16.60;99.90;;;;;;5074430;28;20093;-60
2021/08/30 07:04:33;;;;;;;10.25;9.25;;;16.70;99.90;;;;;;5093093;28;20020;-60
2021/08/30 07:06:59;;;;;;;10.90;9.68;;;16.70;99.90;;;;;;5092929;28;20032;-58
2021/08/30 07:09:25;;;;;;;10.88;9.73;;;16.80;99.90;;;;;;5089683;28;20483;-60
2021/08/30 07:11:51;;;;;;;11.43;9.40;;;16.80;99.90;;;;;;5092008;28;20028;-57
2021/08/30 07:14:17;;;;;;;10.10;9.10;;;16.90;99.90;;;;;;5092829;28;20047;-60
2021/08/30 07:16:43;;;;;;;10.15;9.15;;;17.00;99.90;;;;;;5092145;28;20409;-62
2021/08/30 07:19:09;;;;;;;10.10;9.10;;;17.10;99.90;;;;;;5092314;28;20496;-60
2021/08/30 07:21:34;;;;;;;11.23;10.02;;;17.20;99.90;;;;;;5086699;28;20032;-57
2021/08/30 07:24:03;;;;;;;10.35;9.30;;;17.30;99.90;;;;;;5073490;28;20031;-59
2021/08/30 07:26:29;;;;;;;9.80;8.80;;;17.40;99.90;;;;;;5082264;28;20032;-59
2021/08/30 07:28:54;;;;;;;11.48;10.15;;;17.50;99.90;;;;;;5087726;28;20032;-58
2021/08/30 07:31:20;;;;;;;11.57;8.30;;;17.50;99.90;;;;;;5088419;28;20059;-59
2021/08/30 07:33:46;;;;;;;9.75;8.68;;;17.30;99.90;;;;;;5087994;28;20506;-59
2021/08/30 07:36:11;;;;;;;8.40;7.38;;;17.20;99.90;;;;;;5087520;28;20042;-59
2021/08/30 07:38:37;;;;;;;8.70;6.53;;;17.30;99.90;;;;;;5089562;28;20042;-60
2021/08/30 07:41:03;;;;;;;7.82;7.03;;;17.40;99.90;;;;;;5092226;28;20036;-61
2021/08/30 07:43:29;;;;;;;7.68;6.57;;;17.50;99.90;;;;;;5091480;28;20063;-59
2021/08/30 07:45:55;;;;;;;7.35;5.15;;;17.60;99.90;;;;;;5092511;28;20104;-63
2021/08/30 07:48:21;;;;;;;5.75;4.70;;;17.40;99.90;;;;;;5084590;28;20036;-64
2021/08/30 07:50:47;;;;;;;6.20;4.70;;;17.40;99.90;;;;;;5092194;28;20042;-60
2021/08/30 07:53:12;;;;;;;6.75;5.07;;;17.40;99.90;;;;;;5083806;28;20028;-61
2021/08/30 07:55:38;;;;;;;5.78;5.13;;;17.50;99.90;;;;;;5086386;28;20085;-63
2021/08/30 07:58:04;;;;;;;8.35;6.10;;;17.50;99.90;;;;;;5082142;28;20028;-63
2021/08/30 08:00:30;;;;;;;5.47;4.57;;;17.40;99.90;;;;;;5081892;28;20112;-63
2021/08/30 08:02:56;;;;;;;7.75;5.60;;;17.40;99.90;;;;;;5079987;28;20159;-62
2021/08/30 08:05:21;;;;;;;7.22;5.82;;;17.40;99.90;;;;;;5083826;28;20043;-63
2021/08/30 08:07:47;;;;;;;7.63;5.78;;;17.30;99.90;;;;;;5078765;28;20048;-61
2021/08/30 08:10:12;;;;;;;6.18;5.57;;;17.10;99.90;;;;;;5088056;28;20397;-55
2021/08/30 08:12:38;;;;;;;5.53;4.90;;;17.20;99.90;;;;;;5088232;28;20031;-57
2021/08/30 08:15:05;;;;;;;5.38;4.85;;;17.10;99.90;;;;;;5071590;28;20074;-56
2021/08/30 08:17:31;;;;;;;6.35;4.78;;;17.10;99.90;;;;;;5071483;28;20032;-51
2021/08/30 08:19:56;;;;;;;5.53;4.63;;;17.10;99.90;;;;;;5079396;28;20532;-54
2021/08/30 08:22:22;;;;;;;5.25;4.75;;;17.20;99.90;;;;;;5095602;28;20056;-59
2021/08/30 08:24:48;;;;;;;7.10;4.53;;;17.30;99.90;;;;;;5095729;28;20016;-55
2021/08/30 08:27:14;;;;;;;4.70;4.20;;;17.40;99.90;;;;;;5095518;28;20040;-55
2021/08/30 08:29:39;;;;;;;4.90;4.50;;;17.30;99.90;;;;;;5096923;28;20036;-53
2021/08/30 08:32:05;;;;;;;5.45;4.57;;;17.30;99.90;;;;;;5078576;28;20032;-57
2021/08/30 08:34:31;;;;;;;5.55;4.50;;;17.30;99.90;;;;;;5096668;28;20043;-55
2021/08/30 08:37:04;;;;;;;4.55;4.15;;;17.20;99.90;;;;;;5097017;28;20048;-54
2021/08/30 08:39:30;;;;;;;4.80;4.30;;;17.20;99.90;;;;;;5097539;28;20154;-52
2021/08/30 08:41:56;;;;;;;9.07;4.65;;;17.30;99.90;;;;;;5096859;28;20494;-54
2021/08/30 08:44:21;;;;;;;7.95;5.85;;;17.40;99.90;;;;;;5097748;28;20110;-56
2021/08/30 08:46:47;;;;;;;7.22;4.97;;;17.60;99.80;;;;;;5096986;28;20119;-56
2021/08/30 08:49:13;;;;;;;6.97;5.95;;;17.50;99.60;;;;;;5097215;28;20399;-56
2021/08/30 08:51:38;;;;;;;5.10;4.32;;;17.50;99.70;;;;;;5078675;28;20486;-54
2021/08/30 08:54:08;;;;;;;7.80;6.93;;;17.50;99.70;;;;;;5096773;28;20028;-55
2021/08/30 08:56:34;;;;;;;7.25;4.80;;;17.50;99.90;;;;;;5096766;28;20113;-53
2021/08/30 08:59:00;;;;;;;4.90;4.40;;;17.50;99.90;;;;;;5097408;28;20099;-58
2021/08/30 09:01:27;;;;;;;7.25;4.80;;;17.60;99.90;;;;;;5098821;28;20058;-56
2021/08/30 09:03:57;;;;;;;4.82;4.05;;;17.60;99.90;;;;;;5078468;28;20078;-55
2021/08/30 09:06:26;;;;;;;4.97;4.28;;;17.60;99.20;;;;;;5096690;28;20399;-51
2021/08/30 09:09:17;;;;;;;4.70;4.30;;;17.50;99.50;;;;;;5095615;28;20039;-54
2021/08/30 09:11:50;;;;;;;4.82;4.32;;;17.50;99.50;;;;;;5095895;28;20040;-53
2021/08/30 09:14:21;;;;;;;4.72;4.22;;;17.60;99.10;;;;;;5097009;28;20090;-56
2021/08/30 09:16:48;;;;;;;6.03;4.28;;;17.60;98.90;;;;;;5077619;28;20521;-52
2021/08/30 09:19:16;;;;;;;20.95;6.22;;;17.40;99.30;;;;;;5094902;28;20036;-51
2021/08/30 09:21:47;;;;;;;5.95;4.30;;;17.40;99.60;;;;;;5076019;28;20056;-51
2021/08/30 09:24:18;;;;;;;10.88;5.72;;;17.20;99.50;;;;;;5076207;28;20050;-55
2021/08/30 09:26:47;;;;;;;5.50;4.97;;;17.30;99.90;;;;;;5075783;28;20039;-57
2021/08/30 09:29:15;;;;;;;20.48;6.05;;;17.40;99.90;;;;;;5076596;28;20032;-50
2021/08/30 09:31:41;;;;;;;5.97;4.65;;;17.50;99.80;;;;;;5076496;28;20070;-58
2021/08/30 09:34:12;;;;;;;4.82;4.30;;;17.40;99.60;;;;;;5096968;28;20055;-57
2021/08/30 09:36:42;;;;;;;6.07;4.50;;;17.40;99.60;;;;;;5096976;28;20165;-53
2021/08/30 09:39:08;;;;;;;6.43;4.90;;;17.30;99.70;;;;;;5096515;28;20499;-57
2021/08/30 09:41:36;;;;;;;5.90;5.30;;;17.10;99.90;;;;;;5096258;28;20028;-53
2021/08/30 09:44:03;;;;;;;5.50;4.88;;;17.00;99.90;;;;;;5096461;28;20035;-53
2021/08/30 09:46:31;;;;;;;5.63;5.00;;;17.10;99.90;;;;;;5095675;28;20021;-53
2021/08/30 09:49:07;;;;;;;6.03;5.25;;;17.10;99.90;;;;;;5096060;28;20071;-55
2021/08/30 09:51:40;;;;;;;5.78;4.90;;;17.10;99.90;;;;;;5095437;28;20441;-55
2021/08/30 09:54:07;;;;;;;5.28;4.78;;;17.20;99.90;;;;;;5096432;28;20116;-53
2021/08/30 09:56:37;;;;;;;5.65;5.03;;;17.20;99.90;;;;;;5096194;28;20044;-55
2021/08/30 09:59:08;;;;;;;8.40;5.03;;;17.30;99.90;;;;;;5094942;28;20036;-58
2021/08/30 10:01:39;;;;;;;6.93;4.90;;;17.30;99.90;;;;;;5094999;28;20046;-57
2021/08/30 10:04:06;;;;;;;7.28;5.18;;;17.40;99.90;;;;;;5095153;28;20492;-56
2021/08/30 10:06:35;;;;;;;5.82;4.82;;;17.20;99.90;;;;;;5095448;28;20089;-51
2021/08/30 10:09:02;;;;;;;4.82;4.38;;;17.00;99.90;;;;;;5094682;28;20106;-55
2021/08/30 10:11:28;;;;;;;5.50;3.83;;;17.00;99.90;;;;;;5094916;28;20067;-55
2021/08/30 10:13:54;;;;;;;3.90;3.50;;;17.20;99.90;;;;;;5094835;28;20051;-57
2021/08/30 10:16:21;;;;;;;5.07;4.00;;;17.30;99.90;;;;;;5094857;28;20398;-55
2021/08/30 10:18:52;;;;;;;7.40;5.88;;;17.20;99.90;;;;;;5095042;28;20478;-54
2021/08/30 10:21:18;;;;;;;6.55;5.47;;;17.10;99.90;;;;;;5075247;28;20468;-58
2021/08/30 10:23:46;;;;;;;6.35;5.75;;;17.00;99.90;;;;;;5073639;28;20059;-55
2021/08/30 10:26:12;;;;;;;7.10;6.35;;;17.00;99.90;;;;;;5073776;28;20024;-57
2021/08/30 10:28:45;;;;;;;7.55;6.53;;;16.90;99.90;;;;;;5075031;28;20028;-54
2021/08/30 10:31:17;;;;;;;7.53;6.72;;;16.90;99.90;;;;;;5075449;28;20028;-55
2021/08/30 10:33:48;;;;;;;8.70;7.57;;;17.00;99.90;;;;;;5075057;28;20043;-56
2021/08/30 10:36:17;;;;;;;8.15;7.22;;;17.00;99.90;;;;;;5056960;28;20040;-57
2021/08/30 10:38:43;;;;;;;8.18;7.28;;;16.90;99.90;;;;;;5075186;28;20139;-55
2021/08/30 10:41:17;;;;;;;9.60;7.43;;;16.90;99.90;;;;;;5088203;28;20147;-57
2021/08/30 10:43:44;;;;;;;7.90;7.10;;;16.90;99.90;;;;;;5094465;28;20032;-58
2021/08/30 10:46:16;;;;;;;10.68;6.93;;;17.10;99.90;;;;;;5094860;28;20032;-51
2021/08/30 10:48:48;;;;;;;8.65;7.78;;;17.20;99.90;;;;;;5094624;28;20521;-56
2021/08/30 10:51:28;;;;;;;8.45;7.55;;;17.20;99.90;;;;;;5095100;28;20039;-57
2021/08/30 10:54:00;;;;;;;8.35;7.30;;;17.30;99.90;;;;;;5094628;28;20066;-57
2021/08/30 10:56:27;;;;;;;8.75;7.85;;;17.20;99.90;;;;;;5094769;28;20036;-53
2021/08/30 10:58:55;;;;;;;8.57;7.60;;;17.30;99.90;;;;;;5094995;28;20036;-57
2021/08/30 11:01:21;;;;;;;8.48;7.68;;;17.50;99.90;;;;;;5094868;28;20021;-55
2021/08/30 11:03:54;;;;;;;8.73;7.82;;;17.60;99.90;;;;;;5076448;28;20024;-55
2021/08/30 11:06:20;;;;;;;9.10;8.20;;;17.70;99.90;;;;;;5095295;28;20032;-58
2021/08/30 11:08:46;;;;;;;9.02;8.13;;;17.80;99.90;;;;;;5095299;28;20046;-53
2021/08/30 11:11:16;;;;;;;8.50;7.53;;;17.80;99.90;;;;;;5075806;28;20028;-56
2021/08/30 11:13:44;;;;;;;8.15;7.35;;;17.80;99.90;;;;;;5093537;28;20032;-56
2021/08/30 11:16:20;;;;;;;8.27;7.05;;;17.80;99.90;;;;;;5092753;28;20024;-54
2021/08/30 11:18:56;;;;;;;9.98;8.57;;;17.90;99.90;;;;;;5093120;28;20028;-53
2021/08/30 11:21:54;;;;;;;7.55;6.75;;;17.90;99.90;;;;;;5073682;28;20084;-55
2021/08/30 11:24:25;;;;;;;7.68;6.88;;;18.20;99.90;;;;;;5074212;28;20021;-55
2021/08/30 11:26:51;;;;;;;10.68;7.93;;;18.20;99.40;;;;;;5074857;28;20035;-54
2021/08/30 11:29:17;;;;;;;8.93;7.28;;;18.30;99.10;;;;;;5074462;28;20112;-55
2021/08/30 11:31:43;;;;;;;8.85;7.65;;;18.20;99.10;;;;;;5074628;28;20068;-56
2021/08/30 11:34:21;;;;;;;9.43;7.50;;;18.20;99.30;;;;;;5074383;28;20476;-53
2021/08/30 11:36:48;;;;;;;9.25;7.65;;;18.20;99.20;;;;;;5074298;28;20032;-57
2021/08/30 11:39:18;;;;;;;8.30;7.50;;;18.10;99.40;;;;;;5074637;28;20051;-55
2021/08/30 11:41:49;;;;;;;8.23;7.43;;;18.10;99.60;;;;;;5091319;28;20039;-55
2021/08/30 11:44:15;;;;;;;8.25;7.43;;;17.90;99.80;;;;;;5094127;28;20390;-54
2021/08/30 11:46:47;;;;;;;8.57;7.63;;;17.80;99.90;;;;;;5094367;28;20043;-52
2021/08/30 11:49:13;;;;;;;9.15;8.18;;;17.90;99.90;;;;;;5093357;28;20038;-51
2021/08/30 11:51:41;;;;;;;8.95;8.07;;;17.90;99.90;;;;;;5093373;28;20032;-56
2021/08/30 11:54:19;;;;;;;9.50;8.23;;;18.00;99.90;;;;;;5094849;28;20112;-53
2021/08/30 11:56:59;;;;;;;9.75;7.80;;;18.00;99.90;;;;;;5080581;28;20032;-52
2021/08/30 11:59:27;;;;;;;9.85;8.45;;;17.90;99.80;;;;;;5098655;28;20482;-54
2021/08/30 12:01:52;;;;;;;9.75;8.43;;;17.90;99.90;;;;;;5080151;28;20059;-56
2021/08/30 12:04:19;;;;;;;8.63;7.72;;;18.10;99.90;;;;;;5098250;28;20028;-58
2021/08/30 12:06:51;;;;;;;8.68;7.72;;;18.30;99.90;;;;;;5098535;28;20024;-56
2021/08/30 12:09:17;;;;;;;8.43;7.20;;;18.30;99.80;;;;;;5097882;28;20082;-56
2021/08/30 12:11:51;;;;;;;9.15;7.95;;;18.30;99.70;;;;;;5097396;28;20032;-53
2021/08/30 12:14:17;;;;;;;8.52;7.72;;;18.30;99.60;;;;;;5097777;28;20483;-53
2021/08/30 12:16:45;;;;;;;8.80;7.93;;;18.20;99.40;;;;;;5098495;28;20062;-56
2021/08/30 12:19:11;;;;;;;8.35;7.55;;;18.20;99.60;;;;;;5097006;28;20368;-58
2021/08/30 12:21:39;;;;;;;8.77;7.45;;;18.30;99.80;;;;;;5078401;28;20035;-49
2021/08/30 12:24:10;;;;;;;7.97;7.18;;;18.30;99.50;;;;;;5077615;28;20056;-58
2021/08/30 12:26:38;;;;;;;8.55;7.50;;;18.20;99.80;;;;;;5084096;28;20032;-55
2021/08/30 12:29:04;;;;;;;9.43;8.27;;;18.20;99.80;;;;;;5089105;28;20035;-52
2021/08/30 12:31:33;;;;;;;7.88;7.07;;;18.10;99.90;;;;;;5088234;28;20027;-53
2021/08/30 12:34:03;;;;;;;8.15;7.35;;;18.00;99.90;;;;;;5085427;28;20037;-53
2021/08/30 12:36:29;;;;;;;8.65;7.85;;;18.10;99.90;;;;;;5087008;28;20032;-53
2021/08/30 12:38:55;;;;;;;7.53;6.82;;;18.10;99.90;;;;;;5089112;28;20069;-55
2021/08/30 12:41:21;;;;;;;9.25;6.85;;;18.20;99.90;;;;;;5090120;28;20037;-63
2021/08/30 12:43:48;;;;;;;8.57;7.20;;;18.20;99.90;;;;;;5088247;28;20064;-56
2021/08/30 12:46:14;;;;;;;9.27;7.32;;;18.30;99.60;;;;;;5098903;28;20063;-56
2021/08/30 12:48:39;;;;;;;7.70;7.00;;;18.30;99.70;;;;;;5096726;28;20483;-57
2021/08/30 12:51:05;;;;;;;7.60;6.90;;;18.40;99.30;;;;;;5097754;28;20101;-58